createdAt,value
2022-10-02T00:02:27.080Z,8.18
2022-10-02T00:04:58.644Z,8.14
2022-10-02T00:07:32.246Z,8.09
2022-10-02T00:10:04.172Z,8.04
2022-10-02T00:12:38.083Z,7.98
2022-10-02T00:15:14.937Z,7.93
2022-10-02T00:17:48.003Z,7.90
2022-10-02T00:20:18.365Z,7.85
2022-10-02T00:22:56.156Z,7.80
2022-10-02T00:25:29.859Z,7.77
2022-10-02T00:28:13.868Z,7.73
2022-10-02T00:30:56.585Z,7.71
2022-10-02T00:33:33.699Z,7.68
2022-10-02T00:36:11.904Z,7.66
2022-10-02T00:38:48.769Z,7.66
2022-10-02T00:41:55.866Z,7.70
2022-10-02T00:44:42.467Z,7.75
2022-10-02T00:47:20.836Z,7.80
2022-10-02T00:50:18.400Z,7.83
2022-10-02T00:53:01.813Z,7.85
2022-10-02T00:55:45.016Z,7.89
2022-10-02T00:58:27.433Z,7.88
2022-10-02T01:01:04.811Z,7.88
2022-10-02T01:03:38.884Z,7.89
2022-10-02T01:06:08.292Z,7.90
2022-10-02T01:08:36.452Z,7.91
2022-10-02T01:11:06.500Z,7.93
2022-10-02T01:13:35.196Z,7.95
2022-10-02T01:16:05.747Z,7.95
2022-10-02T01:18:33.694Z,7.97
2022-10-02T01:21:09.120Z,7.98
2022-10-02T01:23:43.635Z,7.99
2022-10-02T01:26:12.883Z,8.02
2022-10-02T01:28:41.093Z,8.04
2022-10-02T01:31:14.506Z,8.06
2022-10-02T01:33:44.367Z,8.08
2022-10-02T01:40:30.964Z,8.10
2022-10-02T01:43:04.013Z,8.11
2022-10-02T01:45:48.834Z,8.12
2022-10-02T01:48:23.748Z,8.13
2022-10-02T01:51:05.001Z,8.13
2022-10-02T01:53:40.935Z,8.12
2022-10-02T01:56:16.809Z,8.12
2022-10-02T01:58:55.289Z,8.10
2022-10-02T02:01:36.589Z,8.09
2022-10-02T02:04:13.177Z,8.08
2022-10-02T02:06:48.402Z,8.06
2022-10-02T02:09:20.952Z,8.05
2022-10-02T02:11:54.594Z,8.04
2022-10-02T02:14:27.167Z,8.04
2022-10-02T02:16:57.266Z,8.06
2022-10-02T02:19:29.037Z,8.08
2022-10-02T02:22:05.226Z,8.15
2022-10-02T02:24:37.666Z,8.20
2022-10-02T02:27:09.518Z,8.23
2022-10-02T02:29:41.371Z,8.28
2022-10-02T02:32:19.954Z,8.32
2022-10-02T02:34:54.720Z,8.34
2022-10-02T02:37:28.987Z,8.38
2022-10-02T02:40:00.733Z,8.39
2022-10-02T02:42:32.391Z,8.38
2022-10-02T02:45:07.303Z,8.37
2022-10-02T02:47:40.535Z,8.37
2022-10-02T02:50:15.746Z,8.39
2022-10-02T02:52:49.754Z,8.39
2022-10-02T02:55:21.715Z,8.41
2022-10-02T02:57:58.775Z,8.42
2022-10-02T03:00:28.031Z,8.44
2022-10-02T03:02:55.831Z,8.43
2022-10-02T03:05:25.365Z,8.41
2022-10-02T03:07:55.967Z,8.42
2022-10-02T03:10:34.989Z,8.40
2022-10-02T03:13:17.766Z,8.36
2022-10-02T03:16:01.726Z,8.34
2022-10-02T03:18:58.105Z,8.33
2022-10-02T03:21:35.404Z,8.35
2022-10-02T03:24:10.164Z,8.35
2022-10-02T03:26:42.088Z,8.35
2022-10-02T03:29:14.705Z,8.37
2022-10-02T03:31:45.015Z,8.37
2022-10-02T03:34:13.758Z,8.35
2022-10-02T03:36:42.095Z,8.36
2022-10-02T03:39:24.667Z,8.36
2022-10-02T03:41:54.696Z,8.36
2022-10-02T03:44:22.515Z,8.37
2022-10-02T03:46:51.891Z,8.40
2022-10-02T03:49:19.825Z,8.43
2022-10-02T03:51:47.693Z,8.49
2022-10-02T03:54:18.613Z,8.55
2022-10-02T03:56:54.669Z,8.67
2022-10-02T03:59:40.125Z,8.74
2022-10-02T04:02:17.779Z,8.80
2022-10-02T04:04:51.264Z,8.82
2022-10-02T04:07:23.912Z,8.84
2022-10-02T04:09:55.459Z,8.85
2022-10-02T04:12:30.173Z,8.87
2022-10-02T04:15:04.306Z,8.91
2022-10-02T04:17:44.047Z,8.92
2022-10-02T04:20:19.431Z,8.94
2022-10-02T04:22:53.875Z,8.92
2022-10-02T04:25:28.136Z,8.92
2022-10-02T04:28:00.453Z,8.92
2022-10-02T04:30:33.905Z,8.92
2022-10-02T04:33:12.654Z,8.95
2022-10-02T04:35:48.067Z,8.95
2022-10-02T04:38:39.114Z,8.98
2022-10-02T04:41:28.421Z,9.01
2022-10-02T04:44:08.497Z,9.03
2022-10-02T04:46:58.633Z,9.03
2022-10-02T04:49:48.879Z,9.04
2022-10-02T04:52:39.799Z,9.04
2022-10-02T04:55:22.681Z,9.05
2022-10-02T04:57:58.769Z,9.08
2022-10-02T05:00:37.332Z,9.12
2022-10-02T05:03:26.953Z,9.18
2022-10-02T05:06:16.103Z,9.20
2022-10-02T05:08:58.445Z,9.21
2022-10-02T05:11:53.202Z,9.25
2022-10-02T05:14:59.053Z,9.28
2022-10-02T05:17:38.883Z,9.31
2022-10-02T05:20:21.647Z,9.33
2022-10-02T05:23:22.487Z,9.32
2022-10-02T05:26:12.092Z,9.33
2022-10-02T05:29:06.755Z,9.32
2022-10-02T05:31:42.293Z,9.32
2022-10-02T05:34:33.505Z,9.32
2022-10-02T05:37:17.028Z,9.31
2022-10-02T05:39:56.981Z,9.35
2022-10-02T05:42:34.786Z,9.39
2022-10-02T05:45:05.991Z,9.42
2022-10-02T05:47:39.439Z,9.46
2022-10-02T05:50:16.506Z,9.48
2022-10-02T05:52:55.023Z,9.51
2022-10-02T05:55:29.762Z,9.55
2022-10-02T05:58:04.268Z,9.58
2022-10-02T06:00:38.630Z,9.61
2022-10-02T06:03:16.615Z,9.64
2022-10-02T06:05:55.358Z,9.68
2022-10-02T06:08:31.724Z,9.73
2022-10-02T06:11:08.009Z,9.76
2022-10-02T06:13:41.649Z,9.80
2022-10-02T06:16:18.584Z,9.82
2022-10-02T06:18:52.179Z,9.85
2022-10-02T06:21:29.233Z,9.87
2022-10-02T06:24:01.401Z,9.92
2022-10-02T06:26:41.128Z,9.94
2022-10-02T06:29:18.647Z,9.98
2022-10-02T06:31:52.153Z,10.00
2022-10-02T06:34:21.130Z,10.02
2022-10-02T06:37:01.509Z,10.01
2022-10-02T06:39:50.724Z,10.04
2022-10-02T06:42:34.715Z,10.07
2022-10-02T06:45:11.196Z,10.09
2022-10-02T06:47:57.387Z,10.11
2022-10-02T06:50:38.912Z,10.12
2022-10-02T06:53:22.872Z,10.13
2022-10-02T06:56:01.545Z,10.15
2022-10-02T06:58:48.179Z,10.19
2022-10-02T07:01:26.228Z,10.20
2022-10-02T07:04:13.899Z,10.25
2022-10-02T07:06:55.080Z,10.28
2022-10-02T07:09:48.234Z,10.29
2022-10-02T07:12:29.026Z,10.32
2022-10-02T07:15:19.340Z,10.35
2022-10-02T07:17:58.613Z,10.38
2022-10-02T07:20:35.019Z,10.43
2022-10-02T07:23:13.968Z,10.44
2022-10-02T07:26:02.774Z,10.48
2022-10-02T07:28:38.150Z,10.49
2022-10-02T07:31:18.766Z,10.51
2022-10-02T07:34:00.026Z,10.54
2022-10-02T07:36:42.781Z,10.58
2022-10-02T07:39:23.988Z,10.64
2022-10-02T07:42:09.905Z,10.67
2022-10-02T07:44:58.668Z,10.73
2022-10-02T07:47:45.890Z,10.77
2022-10-02T07:50:17.761Z,10.82
2022-10-02T07:52:56.462Z,10.86
2022-10-02T07:55:25.895Z,10.91
2022-10-02T07:58:02.281Z,10.95
2022-10-02T08:00:32.947Z,10.96
2022-10-02T08:03:03.487Z,11.01
2022-10-02T08:05:34.931Z,11.06
2022-10-02T08:08:10.083Z,11.11
2022-10-02T08:10:41.598Z,11.17
2022-10-02T08:13:20.406Z,11.22
2022-10-02T08:15:52.291Z,11.25
2022-10-02T08:18:35.627Z,11.30
2022-10-02T08:21:14.811Z,11.36
2022-10-02T08:23:47.287Z,11.42
2022-10-02T08:26:20.319Z,11.48
2022-10-02T08:28:54.154Z,11.53
2022-10-02T08:31:24.426Z,11.57
2022-10-02T08:33:53.943Z,11.60
2022-10-02T08:36:54.619Z,11.70
2022-10-02T08:39:42.252Z,11.76
2022-10-02T08:42:51.483Z,11.78
2022-10-02T08:45:56.935Z,11.82
2022-10-02T08:49:07.265Z,11.91
2022-10-02T08:52:04.101Z,11.99
2022-10-02T08:54:54.020Z,11.98
2022-10-02T08:58:02.881Z,12.00
2022-10-02T09:00:46.482Z,12.00
2022-10-02T09:03:57.973Z,12.02
2022-10-02T09:07:27.396Z,12.05
2022-10-02T09:10:48.280Z,12.07
2022-10-02T09:13:55.520Z,12.05
2022-10-02T09:16:30.546Z,12.03
2022-10-02T09:19:03.086Z,12.03
2022-10-02T09:21:55.994Z,12.01
2022-10-02T09:24:58.004Z,12.00
2022-10-02T09:27:56.511Z,12.06
2022-10-02T09:31:02.773Z,12.13
2022-10-02T09:34:24.498Z,12.22
2022-10-02T09:37:12.388Z,12.28
2022-10-02T09:40:08.857Z,12.34
2022-10-02T09:43:27.040Z,12.42
2022-10-02T09:46:15.059Z,12.54
2022-10-02T09:49:21.650Z,12.60
2022-10-02T09:52:20.264Z,12.67
2022-10-02T09:55:24.520Z,12.65
2022-10-02T09:58:32.977Z,12.65
2022-10-02T10:01:40.935Z,12.67
2022-10-02T10:05:05.173Z,12.77
2022-10-02T10:08:06.990Z,12.80
2022-10-02T10:11:03.837Z,12.85
2022-10-02T10:14:00.131Z,13.00
2022-10-02T10:17:09.095Z,13.12
2022-10-02T10:20:16.848Z,13.26
2022-10-02T10:23:09.741Z,13.32
2022-10-02T10:25:51.845Z,13.32
2022-10-02T10:29:01.371Z,13.26
2022-10-02T10:32:12.286Z,13.24
2022-10-02T10:35:21.376Z,13.26
2022-10-02T10:38:17.401Z,13.30
2022-10-02T10:41:05.662Z,13.45
2022-10-02T10:44:36.676Z,13.62
2022-10-02T10:47:24.255Z,13.74
2022-10-02T10:50:15.271Z,13.79
2022-10-02T10:53:10.359Z,13.91
2022-10-02T10:56:00.172Z,13.96
2022-10-02T10:58:47.803Z,14.05
2022-10-02T11:01:19.823Z,14.07
2022-10-02T11:04:28.848Z,14.08
2022-10-02T11:07:15.731Z,13.99
2022-10-02T11:10:17.851Z,13.95
2022-10-02T11:13:11.015Z,13.91
2022-10-02T11:16:06.424Z,13.96
2022-10-02T11:18:54.069Z,14.12
2022-10-02T11:21:41.656Z,14.18
2022-10-02T11:24:36.401Z,14.24
2022-10-02T11:27:17.094Z,14.34
2022-10-02T11:30:11.051Z,14.40
2022-10-02T11:33:04.964Z,14.36
2022-10-02T11:35:53.248Z,14.36
2022-10-02T11:38:45.679Z,14.18
2022-10-02T11:41:31.023Z,14.19
2022-10-02T11:44:22.203Z,14.28
2022-10-02T11:47:19.581Z,14.43
2022-10-02T11:50:23.563Z,14.53
2022-10-02T11:53:08.565Z,14.67
2022-10-02T11:55:51.338Z,14.77
2022-10-02T11:58:23.469Z,14.82
2022-10-02T12:01:09.270Z,14.86
2022-10-02T12:03:52.453Z,14.85
2022-10-02T12:06:33.730Z,14.86
2022-10-02T12:09:11.497Z,14.88
2022-10-02T12:11:48.842Z,14.87
2022-10-02T12:14:32.579Z,14.85
2022-10-02T12:17:16.462Z,14.87
2022-10-02T12:20:16.478Z,14.85
2022-10-02T12:23:09.354Z,14.84
2022-10-02T12:25:58.280Z,14.86
2022-10-02T12:28:38.346Z,14.81
2022-10-02T12:31:17.539Z,14.71
2022-10-02T12:33:56.663Z,14.75
2022-10-02T12:36:40.986Z,14.87
2022-10-02T12:39:22.220Z,14.93
2022-10-02T12:42:12.606Z,15.07
2022-10-02T12:45:02.738Z,15.27
2022-10-02T12:48:00.687Z,15.36
2022-10-02T12:50:47.379Z,15.41
2022-10-02T12:54:04.919Z,15.47
2022-10-02T12:56:51.433Z,15.53
2022-10-02T12:59:29.041Z,15.50
2022-10-02T13:02:56.042Z,15.40
2022-10-02T13:06:01.853Z,15.27
2022-10-02T13:08:43.027Z,15.17
2022-10-02T13:11:25.736Z,15.07
2022-10-02T13:14:12.115Z,14.97
2022-10-02T13:17:09.807Z,14.90
2022-10-02T13:19:53.035Z,14.83
2022-10-02T13:22:26.092Z,14.71
2022-10-02T13:25:19.816Z,14.61
2022-10-02T13:27:55.536Z,14.52
2022-10-02T13:30:25.004Z,14.38
2022-10-02T13:33:13.288Z,14.20
2022-10-02T13:36:11.974Z,14.08
2022-10-02T13:39:05.151Z,14.10
2022-10-02T13:41:52.456Z,14.06
2022-10-02T13:44:35.769Z,14.10
2022-10-02T13:47:33.084Z,14.05
2022-10-02T13:50:17.487Z,14.06
2022-10-02T13:52:59.676Z,14.05
2022-10-02T13:55:30.337Z,14.04
2022-10-02T13:58:34.966Z,14.04
2022-10-02T14:01:16.307Z,14.15
2022-10-02T14:04:07.748Z,14.38
2022-10-02T14:06:43.988Z,14.54
2022-10-02T14:09:45.521Z,14.76
2022-10-02T14:12:28.724Z,14.92
2022-10-02T14:15:31.788Z,15.08
2022-10-02T14:18:14.792Z,15.21
2022-10-02T14:20:50.354Z,15.29
2022-10-02T14:23:43.454Z,15.37
2022-10-02T14:26:22.430Z,15.32
2022-10-02T14:29:09.184Z,15.22
2022-10-02T14:32:03.838Z,15.18
2022-10-02T14:35:15.854Z,15.14
2022-10-02T14:38:18.189Z,15.12
2022-10-02T14:40:53.052Z,15.03
2022-10-02T14:43:45.595Z,15.00
2022-10-02T14:46:22.166Z,14.92
2022-10-02T14:49:12.642Z,14.86
2022-10-02T14:52:12.065Z,14.82
2022-10-02T14:55:10.527Z,14.75
2022-10-02T14:57:53.398Z,14.66
2022-10-02T15:00:24.435Z,14.56
2022-10-02T15:03:22.351Z,14.52
2022-10-02T15:06:17.663Z,14.50
2022-10-02T15:08:51.383Z,14.48
2022-10-02T15:11:26.049Z,14.47
2022-10-02T15:14:04.414Z,14.45
2022-10-02T15:17:01.343Z,14.40
2022-10-02T15:19:37.241Z,14.42
2022-10-02T15:22:17.696Z,14.44
2022-10-02T15:24:49.526Z,14.49
2022-10-02T15:27:27.805Z,14.54
2022-10-02T15:33:23.420Z,14.53
2022-10-02T15:36:10.833Z,14.52
2022-10-02T15:39:09.936Z,14.53
2022-10-02T15:41:49.455Z,14.53
2022-10-02T15:44:35.859Z,14.45
2022-10-02T15:47:16.403Z,14.32
2022-10-02T15:50:02.043Z,14.19
2022-10-02T15:52:42.402Z,14.07
2022-10-02T15:55:25.101Z,13.97
2022-10-02T15:58:10.332Z,13.95
2022-10-02T16:01:00.797Z,13.88
2022-10-02T16:03:45.943Z,13.83
2022-10-02T16:06:25.458Z,13.74
2022-10-02T16:09:14.954Z,13.65
2022-10-02T16:11:58.565Z,13.61
2022-10-02T16:14:39.061Z,13.57
2022-10-02T16:17:25.266Z,13.48
2022-10-02T16:20:23.122Z,13.44
2022-10-02T16:23:04.010Z,13.39
2022-10-02T16:25:51.515Z,13.29
2022-10-02T16:28:36.613Z,13.17
2022-10-02T16:31:23.825Z,13.04
2022-10-02T16:34:01.466Z,12.92
2022-10-02T16:36:38.588Z,12.77
2022-10-02T16:39:25.945Z,12.64
2022-10-02T16:45:39.953Z,12.36
2022-10-02T16:48:14.792Z,12.20
2022-10-02T16:50:54.165Z,12.08
2022-10-02T16:53:29.095Z,12.01
2022-10-02T16:56:10.140Z,11.92
2022-10-02T16:58:46.254Z,11.82
2022-10-02T17:01:27.341Z,11.72
2022-10-02T17:04:23.666Z,11.62
2022-10-02T17:06:59.145Z,11.54
2022-10-02T17:09:35.803Z,11.48
2022-10-02T17:12:14.155Z,11.41
2022-10-02T17:14:46.768Z,11.34
2022-10-02T17:17:22.040Z,11.31
2022-10-02T17:19:55.696Z,11.28
2022-10-02T17:22:33.505Z,11.27
2022-10-02T17:25:07.775Z,11.23
2022-10-02T17:27:49.489Z,11.21
2022-10-02T17:30:23.907Z,11.19
2022-10-02T17:33:08.301Z,11.20
2022-10-02T17:35:48.150Z,11.19
2022-10-02T17:38:44.502Z,11.16
2022-10-02T17:41:27.158Z,11.12
2022-10-02T17:44:07.297Z,11.09
2022-10-02T17:46:50.939Z,11.05
2022-10-02T17:49:31.175Z,11.02
2022-10-02T17:52:30.656Z,10.98
2022-10-02T17:55:41.814Z,10.94
2022-10-02T17:58:18.386Z,10.87
2022-10-02T18:01:05.748Z,10.81
2022-10-02T18:04:09.635Z,10.74
2022-10-02T18:07:07.528Z,10.70
2022-10-02T18:09:50.181Z,10.62
2022-10-02T18:12:50.187Z,10.52
2022-10-02T18:15:33.506Z,10.45
2022-10-02T18:18:22.951Z,10.39
2022-10-02T18:21:01.400Z,10.34
2022-10-02T18:24:01.910Z,10.26
2022-10-02T18:26:44.609Z,10.20
2022-10-02T18:29:19.037Z,10.15
2022-10-02T18:32:15.560Z,10.09
2022-10-02T18:35:15.419Z,10.04
2022-10-02T18:37:57.541Z,9.97
2022-10-02T18:40:29.601Z,9.90
2022-10-02T18:43:23.205Z,9.85
2022-10-02T18:46:01.929Z,9.81
2022-10-02T18:48:53.781Z,9.77
2022-10-02T18:51:37.150Z,9.71
2022-10-02T18:54:19.667Z,9.68
2022-10-02T18:57:00.169Z,9.64
2022-10-02T18:59:39.934Z,9.58
2022-10-02T19:02:26.307Z,9.54
2022-10-02T19:05:23.058Z,9.50
2022-10-02T19:07:57.324Z,9.46
2022-10-02T19:10:29.962Z,9.41
2022-10-02T19:13:04.573Z,9.38
2022-10-02T19:15:34.869Z,9.35
2022-10-02T19:18:04.578Z,9.32
2022-10-02T19:20:48.980Z,9.29
2022-10-02T19:23:23.385Z,9.28
2022-10-02T19:25:53.354Z,9.28
2022-10-02T19:28:25.527Z,9.35
2022-10-02T19:30:58.273Z,9.39
2022-10-02T19:33:41.310Z,9.43
2022-10-02T19:36:17.138Z,9.44
2022-10-02T19:38:51.077Z,9.43
2022-10-02T19:41:19.975Z,9.40
2022-10-02T19:43:56.476Z,9.36
2022-10-02T19:46:38.637Z,9.33
2022-10-02T19:49:08.513Z,9.30
2022-10-02T19:51:44.967Z,9.25
2022-10-02T19:54:19.822Z,9.21
2022-10-02T19:56:57.266Z,9.16
2022-10-02T19:59:31.493Z,9.13
2022-10-02T20:02:05.026Z,9.09
2022-10-02T20:04:33.352Z,9.05
2022-10-02T20:07:02.092Z,9.03
2022-10-02T20:09:37.242Z,9.00
2022-10-02T20:12:14.436Z,8.97
2022-10-02T20:14:47.364Z,8.92
2022-10-02T20:17:17.754Z,8.87
2022-10-02T20:19:52.943Z,8.83
2022-10-02T20:22:29.932Z,8.78
2022-10-02T20:25:03.727Z,8.75
2022-10-02T20:27:42.248Z,8.69
2022-10-02T20:30:17.049Z,8.64
2022-10-02T20:32:50.673Z,8.60
2022-10-02T20:35:24.588Z,8.54
2022-10-02T20:37:56.045Z,8.51
2022-10-02T20:40:28.713Z,8.45
2022-10-02T20:43:00.191Z,8.43
2022-10-02T20:45:37.714Z,8.39
2022-10-02T20:49:07.889Z,8.32
2022-10-02T20:51:58.678Z,8.24
2022-10-02T20:54:54.023Z,8.20
2022-10-02T20:58:04.968Z,8.13
2022-10-02T21:00:52.884Z,8.09
2022-10-02T21:03:41.766Z,8.05
2022-10-02T21:06:27.447Z,8.03
2022-10-02T21:09:34.450Z,8.02
2022-10-02T21:12:38.675Z,8.00
2022-10-02T21:15:29.301Z,7.99
2022-10-02T21:18:28.037Z,7.97
2022-10-02T21:21:36.263Z,7.95
2022-10-02T21:24:33.798Z,7.95
2022-10-02T21:27:21.794Z,7.93
2022-10-02T21:30:03.290Z,7.93
2022-10-02T21:32:41.944Z,7.94
2022-10-02T21:35:42.286Z,7.95
2022-10-02T21:38:28.011Z,7.95
2022-10-02T21:41:30.837Z,7.93
2022-10-02T21:44:46.794Z,7.92
2022-10-02T21:47:50.190Z,7.88
2022-10-02T21:50:36.500Z,7.87
2022-10-02T21:53:43.761Z,7.84
2022-10-02T21:56:52.509Z,7.81
2022-10-02T22:00:02.640Z,7.79
2022-10-02T22:06:45.299Z,7.71
2022-10-02T22:09:37.002Z,7.69
2022-10-02T22:12:19.810Z,7.64
2022-10-02T22:14:51.071Z,7.63
2022-10-02T22:17:27.574Z,7.61
2022-10-02T22:20:13.081Z,7.59
2022-10-02T22:23:01.452Z,7.55
2022-10-02T22:25:47.431Z,7.52
2022-10-02T22:28:37.502Z,7.49
2022-10-02T22:31:25.079Z,7.48
2022-10-02T22:34:04.022Z,7.45
2022-10-02T22:36:52.766Z,7.41
2022-10-02T22:39:30.121Z,7.39
2022-10-02T22:42:03.799Z,7.36
2022-10-02T22:44:36.564Z,7.31
2022-10-02T22:47:13.116Z,7.28
2022-10-02T22:49:46.609Z,7.24
2022-10-02T22:52:25.256Z,7.24
2022-10-02T22:55:02.255Z,7.20
2022-10-02T22:57:40.228Z,7.18
2022-10-02T23:00:17.686Z,7.14
2022-10-02T23:02:51.163Z,7.11
2022-10-02T23:05:29.581Z,7.09
2022-10-02T23:08:04.630Z,7.07
2022-10-02T23:10:44.086Z,7.07
2022-10-02T23:13:17.463Z,7.04
2022-10-02T23:15:54.158Z,7.02
2022-10-02T23:18:35.787Z,6.99
2022-10-02T23:21:10.264Z,6.99
2022-10-02T23:23:50.960Z,6.97
2022-10-02T23:26:30.812Z,6.96
2022-10-02T23:29:14.681Z,6.92
2022-10-02T23:31:51.341Z,6.96
2022-10-02T23:34:31.602Z,6.96
2022-10-02T23:37:02.533Z,6.95
2022-10-02T23:39:40.199Z,6.99
2022-10-02T23:42:16.600Z,6.99
2022-10-02T23:44:49.660Z,7.00
2022-10-02T23:47:27.966Z,7.00
2022-10-02T23:49:57.335Z,6.99
2022-10-02T23:52:51.404Z,6.99
2022-10-02T23:55:45.086Z,7.00
2022-10-02T23:58:33.491Z,7.00
